sensor_id;sensor_type;location;lat;lon;timestamp;P1;durP1;ratioP1;P2;durP2;ratioP2
76900;SDS011;65859;43.020;25.096;2023-01-20T21:06:25;26.77;;;20.13;;
76900;SDS011;65859;43.020;25.096;2023-01-20T21:08:53;24.25;;;18.55;;
76900;SDS011;65859;43.020;25.096;2023-01-20T21:11:19;25.88;;;18.25;;
76900;SDS011;65859;43.020;25.096;2023-01-20T21:13:46;29.88;;;20.08;;
76900;SDS011;65859;43.020;25.096;2023-01-20T21:16:16;42.97;;;25.10;;
76900;SDS011;65859;43.020;25.096;2023-01-20T21:18:46;57.60;;;31.33;;
76900;SDS011;65859;43.020;25.096;2023-01-20T21:21:13;22.38;;;15.80;;
76900;SDS011;65859;43.020;25.096;2023-01-20T21:23:49;17.85;;;12.32;;
76900;SDS011;65859;43.020;25.096;2023-01-20T21:26:17;18.42;;;13.95;;
76900;SDS011;65859;43.020;25.096;2023-01-20T21:28:44;19.48;;;13.40;;
76900;SDS011;65859;43.020;25.096;2023-01-20T21:31:14;12.07;;;8.40;;
76900;SDS011;65859;43.020;25.096;2023-01-20T21:33:42;14.48;;;9.98;;
76900;SDS011;65859;43.020;25.096;2023-01-20T21:36:13;10.05;;;7.75;;
76900;SDS011;65859;43.020;25.096;2023-01-20T21:38:40;20.63;;;13.82;;
76900;SDS011;65859;43.020;25.096;2023-01-20T21:41:12;9.75;;;7.88;;
76900;SDS011;65859;43.020;25.096;2023-01-20T21:43:40;12.55;;;8.32;;
76900;SDS011;65859;43.020;25.096;2023-01-20T21:46:27;9.77;;;7.63;;
76900;SDS011;65859;43.020;25.096;2023-01-20T21:48:55;9.45;;;7.00;;
76900;SDS011;65859;43.020;25.096;2023-01-20T21:51:39;12.68;;;9.38;;
76900;SDS011;65859;43.020;25.096;2023-01-20T21:54:28;10.75;;;7.65;;
76900;SDS011;65859;43.020;25.096;2023-01-20T21:56:55;11.48;;;8.32;;
76900;SDS011;65859;43.020;25.096;2023-01-20T21:59:22;12.73;;;9.32;;
76900;SDS011;65859;43.020;25.096;2023-01-20T22:01:48;10.98;;;7.50;;
76900;SDS011;65859;43.020;25.096;2023-01-20T22:04:15;12.40;;;8.88;;
76900;SDS011;65859;43.020;25.096;2023-01-20T22:06:42;23.50;;;14.45;;
76900;SDS011;65859;43.020;25.096;2023-01-20T22:09:09;13.10;;;8.50;;
76900;SDS011;65859;43.020;25.096;2023-01-20T22:11:37;10.15;;;7.45;;
76900;SDS011;65859;43.020;25.096;2023-01-20T22:14:03;12.80;;;8.93;;
76900;SDS011;65859;43.020;25.096;2023-01-20T22:16:29;20.98;;;13.40;;
76900;SDS011;65859;43.020;25.096;2023-01-20T22:18:56;14.65;;;9.57;;
76900;SDS011;65859;43.020;25.096;2023-01-20T22:21:23;22.73;;;14.07;;
76900;SDS011;65859;43.020;25.096;2023-01-20T22:23:50;48.67;;;38.45;;
76900;SDS011;65859;43.020;25.096;2023-01-20T22:26:17;37.65;;;29.35;;
76900;SDS011;65859;43.020;25.096;2023-01-20T22:28:44;31.17;;;24.63;;
76900;SDS011;65859;43.020;25.096;2023-01-20T22:31:11;31.83;;;25.15;;
76900;SDS011;65859;43.020;25.096;2023-01-20T22:33:41;49.80;;;35.10;;
76900;SDS011;65859;43.020;25.096;2023-01-20T22:36:07;65.13;;;44.58;;
76900;SDS011;65859;43.020;25.096;2023-01-20T22:38:34;100.53;;;66.70;;
76900;SDS011;65859;43.020;25.096;2023-01-20T22:41:01;78.10;;;53.58;;
76900;SDS011;65859;43.020;25.096;2023-01-20T22:43:32;35.28;;;27.77;;
76900;SDS011;65859;43.020;25.096;2023-01-20T22:46:00;26.63;;;21.42;;
76900;SDS011;65859;43.020;25.096;2023-01-20T22:48:28;21.98;;;16.58;;
76900;SDS011;65859;43.020;25.096;2023-01-20T22:51:30;13.93;;;10.93;;
76900;SDS011;65859;43.020;25.096;2023-01-20T22:53:54;6.47;;;5.88;;
76900;SDS011;65859;43.020;25.096;2023-01-20T22:56:22;4.57;;;4.15;;
76900;SDS011;65859;43.020;25.096;2023-01-20T22:58:50;6.32;;;4.20;;
76900;SDS011;65859;43.020;25.096;2023-01-20T23:01:21;4.50;;;4.07;;
76900;SDS011;65859;43.020;25.096;2023-01-20T23:03:57;5.60;;;4.78;;
76900;SDS011;65859;43.020;25.096;2023-01-20T23:06:25;5.35;;;4.15;;
76900;SDS011;65859;43.020;25.096;2023-01-20T23:08:53;5.07;;;4.13;;
76900;SDS011;65859;43.020;25.096;2023-01-20T23:11:19;3.90;;;3.50;;
76900;SDS011;65859;43.020;25.096;2023-01-20T23:13:48;4.22;;;3.50;;
76900;SDS011;65859;43.020;25.096;2023-01-20T23:16:17;3.95;;;3.40;;
76900;SDS011;65859;43.020;25.096;2023-01-20T23:18:45;3.55;;;2.83;;
76900;SDS011;65859;43.020;25.096;2023-01-20T23:21:12;3.72;;;3.38;;
76900;SDS011;65859;43.020;25.096;2023-01-20T23:23:38;4.10;;;3.50;;
76900;SDS011;65859;43.020;25.096;2023-01-20T23:26:17;6.75;;;4.93;;
76900;SDS011;65859;43.020;25.096;2023-01-20T23:28:44;5.05;;;4.38;;
76900;SDS011;65859;43.020;25.096;2023-01-20T23:31:12;5.78;;;3.70;;
76900;SDS011;65859;43.020;25.096;2023-01-20T23:33:40;4.85;;;3.95;;
76900;SDS011;65859;43.020;25.096;2023-01-20T23:36:11;5.05;;;4.00;;
76900;SDS011;65859;43.020;25.096;2023-01-20T23:38:39;6.45;;;4.07;;
76900;SDS011;65859;43.020;25.096;2023-01-20T23:41:06;4.57;;;3.85;;
76900;SDS011;65859;43.020;25.096;2023-01-20T23:43:33;6.38;;;4.40;;
76900;SDS011;65859;43.020;25.096;2023-01-20T23:46:01;5.35;;;3.92;;
76900;SDS011;65859;43.020;25.096;2023-01-20T23:48:30;4.63;;;3.72;;
76900;SDS011;65859;43.020;25.096;2023-01-20T23:50:57;5.10;;;4.60;;
76900;SDS011;65859;43.020;25.096;2023-01-20T23:53:24;6.95;;;4.97;;
76900;SDS011;65859;43.020;25.096;2023-01-20T23:55:51;7.25;;;5.65;;
76900;SDS011;65859;43.020;25.096;2023-01-20T23:58:22;7.20;;;5.50;;
